Latest Weather Observations for Broome Port

IDW60801

Issued at 4:02 pm WST Friday 3 July 2015 (issued every 30 minutes, with the page automatically refreshed every 10 minutes)

About weather observations | Map of weather stations | Latest weather observations for WA | Other Formats
Station Details ID: 003102 Name: BROOME NTC AWS Lat: -18.00 Lon: 122.22 Height: 0.0 m
Data from the previous 72 hours. | See also: Recent months for locations in Western Australia
Date/Time
WST
Temp
°C
App
Temp
°C
Dew
Point
Rel
Hum
%
Delta-T
°C
Wind Press
QNH
hPa
Press
MSL
hPa
Rain
since 9 am
mm
Dir
 
Spd
km/h
Gust
km/h
Spd
kts
Gust
kts
03/04:00pm 27.5 - - - - WSW 15 15 8 8 1013.2 1013.2 -
03/03:30pm 28.8 - - - - SW 11 13 6 7 1013.3 1013.3 -
03/03:00pm 28.8 - - - - SW 9 11 5 6 1013.4 1013.4 -
03/02:30pm 28.4 - - - - SW 9 15 5 8 1013.5 1013.5 -
03/02:00pm 29.6 - - - - SSW 11 13 6 7 1013.8 1013.8 -
03/01:30pm 28.4 - - - - SSW 13 13 7 7 1014.1 1014.1 -
03/01:00pm 28.0 - - - - SE 6 7 3 4 1014.7 1014.7 -
03/12:30pm 28.0 - - - - ESE 7 11 4 6 1015.2 1015.2 -
03/12:00pm 26.6 - - - - SE 13 17 7 9 1015.5 1015.5 -
03/11:30am 25.6 - - - - SE 17 20 9 11 1015.6 1015.6 -
03/11:00am 25.3 - - - - SE 22 26 12 14 1015.7 1015.7 -
03/10:30am 24.7 - - - - SE 19 22 10 12 1016.3 1016.3 -
03/10:00am 24.0 - - - - SE 13 19 7 10 1016.7 1016.7 -
03/09:30am 23.6 - - - - SE 17 20 9 11 1017.1 1017.1 -
03/09:00am 23.4 - - - - SE 22 28 12 15 1017.2 1017.2 -
03/08:30am 23.0 - - - - SE 28 35 15 19 1017.2 1017.2 -
03/08:00am 21.7 - - - - SE 24 32 13 17 1017.0 1017.0 -
03/07:30am 21.7 - - - - SE 26 32 14 17 1016.7 1016.7 -
03/07:00am 21.3 - - - - SE 22 26 12 14 1016.8 1016.8 -
03/06:30am 21.4 - - - - SE 22 28 12 15 1016.7 1016.7 -
03/06:00am 21.1 - - - - SE 20 24 11 13 1016.6 1016.6 -
03/05:30am 21.2 - - - - SE 20 22 11 12 1016.3 1016.3 -
03/05:00am 21.5 - - - - SE 19 22 10 12 1016.2 1016.2 -
03/04:30am 21.6 - - - - SE 17 22 9 12 1016.1 1016.1 -
03/04:00am 22.3 - - - - ESE 19 24 10 13 1016.2 1016.2 -
03/03:30am 22.8 - - - - ESE 20 24 11 13 1016.3 1016.3 -
03/03:00am 23.6 - - - - SE 24 30 13 16 1016.2 1016.2 -
03/02:30am 23.8 - - - - SE 20 24 11 13 1016.5 1016.5 -
03/02:00am 23.9 - - - - SE 20 26 11 14 1016.8 1016.8 -
03/01:30am 23.6 - - - - ESE 15 20 8 11 1017.1 1017.1 -
03/01:00am 23.9 - - - - SE 17 19 9 10 1017.2 1017.2 -
03/12:30am 24.2 - - - - SE 20 24 11 13 1017.3 1017.3 -
03/12:00am 24.4 - - - - SE 17 22 9 12 1017.5 1017.5 -
 
Date/Time
WST
Temp
°C
App
Temp
°C
Dew
Point
Rel
Hum
%
Delta-T
°C
Wind Press
QNH
hPa
Press
MSL
hPa
Rain
since 9 am
mm
Dir
 
Spd
km/h
Gust
km/h
Spd
kts
Gust
kts
02/11:30pm 24.4 - - - - ESE 11 17 6 9 1017.5 1017.5 -
02/11:00pm 25.2 - - - - SE 13 17 7 9 1017.5 1017.5 -
02/10:30pm 25.6 - - - - SSE 11 13 6 7 1017.6 1017.6 -
02/10:00pm 26.1 - - - - S 7 11 4 6 1017.6 1017.6 -
02/09:30pm 26.3 - - - - WSW 6 7 3 4 1017.6 1017.6 -
02/09:00pm 25.1 - - - - N 4 7 2 4 1017.5 1017.5 -
02/08:30pm 25.0 - - - - N 7 11 4 6 1017.4 1017.4 -
02/08:00pm 25.4 - - - - SW 19 24 10 13 1017.0 1017.0 -
02/07:30pm 24.4 - - - - WSW 13 17 7 9 1016.7 1016.7 -
02/07:00pm 23.8 - - - - SW 17 20 9 11 1016.3 1016.3 -
02/06:30pm 24.3 - - - - SW 15 19 8 10 1015.9 1015.9 -
02/06:00pm 25.5 - - - - SW 17 22 9 12 1015.6 1015.6 -
02/05:30pm 24.3 - - - - WSW 17 20 9 11 1015.4 1015.4 -
02/05:00pm 29.0 - - - - SSW 17 19 9 10 1015.1 1015.1 -
02/04:30pm 28.1 - - - - SSW 17 19 9 10 1015.0 1015.0 -
02/04:00pm 29.0 - - - - S 15 17 8 9 1014.9 1014.9 -
02/03:30pm 28.6 - - - - S 17 19 9 10 1014.7 1014.7 -
02/03:00pm 28.5 - - - - S 17 20 9 11 1014.8 1014.8 -
02/02:30pm 28.4 - - - - S 15 19 8 10 1015.0 1015.0 -
02/02:00pm 27.3 - - - - SSE 15 19 8 10 1015.2 1015.2 -
02/01:30pm 28.2 - - - - SE 19 22 10 12 1015.7 1015.7 -
02/01:00pm 27.3 - - - - SE 15 20 8 11 1015.9 1015.9 -
02/12:30pm 26.5 - - - - ESE 13 19 7 10 1016.4 1016.4 -
02/12:00pm 26.5 - - - - ESE 11 19 6 10 1017.0 1017.0 -
02/11:30am 26.3 - - - - ESE 13 28 7 15 1017.4 1017.4 -
02/11:00am 24.1 - - - - SSE 9 11 5 6 1017.9 1017.9 -
02/10:30am 23.7 - - - - SE 4 6 2 3 1018.5 1018.5 -
02/10:00am 21.9 - - - - E 6 9 3 5 1018.9 1018.9 -
02/09:30am 21.4 - - - - ESE 7 13 4 7 1019.3 1019.3 -
02/09:00am 21.1 - - - - SE 13 20 7 11 1019.5 1019.5 -
02/08:30am 20.4 - - - - SE 17 20 9 11 1019.4 1019.4 -
02/08:00am 20.5 - - - - SE 15 19 8 10 1019.3 1019.3 -
02/07:30am 20.4 - - - - SE 15 17 8 9 1019.1 1019.1 -
02/07:00am 20.3 - - - - SE 11 13 6 7 1018.8 1018.8 -
02/06:30am 20.2 - - - - ESE 11 15 6 8 1018.7 1018.7 -
02/06:00am 20.1 - - - - ESE 11 13 6 7 1018.5 1018.5 -
02/05:30am 19.9 - - - - ESE 13 15 7 8 1018.2 1018.2 -
02/05:00am 20.4 - - - - ESE 20 22 11 12 1018.0 1018.0 -
02/04:30am 20.3 - - - - E 17 22 9 12 1018.0 1018.0 -
02/04:00am 20.5 - - - - SE 6 13 3 7 1017.8 1017.8 -
02/03:30am 20.5 - - - - ESE 9 13 5 7 1017.7 1017.7 -
02/03:00am 20.1 - - - - E 13 15 7 8 1017.7 1017.7 -
02/02:30am 20.5 - - - - E 13 17 7 9 1017.7 1017.7 -
02/02:00am 21.4 - - - - ESE 15 19 8 10 1017.8 1017.8 -
02/01:30am 22.3 - - - - SE 11 13 6 7 1018.0 1018.0 -
02/01:00am 23.1 - - - - SE 17 24 9 13 1018.2 1018.2 -
02/12:30am 23.2 - - - - SE 7 9 4 5 1018.4 1018.4 -
02/12:00am 23.6 - - - - ESE 9 15 5 8 1018.4 1018.4 -
 
Date/Time
WST
Temp
°C
App
Temp
°C
Dew
Point
Rel
Hum
%
Delta-T
°C
Wind Press
QNH
hPa
Press
MSL
hPa
Rain
since 9 am
mm
Dir
 
Spd
km/h
Gust
km/h
Spd
kts
Gust
kts
01/11:30pm 24.4 - - - - ESE 9 15 5 8 1018.4 1018.4 -
01/11:00pm 23.8 - - - - SE 7 9 4 5 1018.6 1018.6 -
01/10:30pm 24.3 - - - - NNE 2 6 1 3 1018.7 1018.7 -
01/10:00pm 24.8 - - - - NNW 4 6 2 3 1018.8 1018.8 -
01/09:30pm 24.0 - - - - NW 6 7 3 4 1018.8 1018.8 -
01/09:00pm 24.8 - - - - NNW 4 6 2 3 1018.7 1018.7 -
01/08:30pm 24.7 - - - - WNW 2 2 1 1 1018.4 1018.4 -
01/08:00pm 25.1 - - - - NNE 7 11 4 6 1018.2 1018.2 -
01/07:30pm 25.8 - - - - S 20 24 11 13 1017.7 1017.7 -
01/07:00pm 26.9 - - - - SSW 20 20 11 11 1017.2 1017.2 -
01/06:30pm 25.3 - - - - SSW 22 24 12 13 1016.9 1016.9 -
01/06:00pm 26.1 - - - - SSW 22 24 12 13 1016.4 1016.4 -
01/05:30pm 24.1 - - - - SW 13 15 7 8 1016.1 1016.1 -
01/05:00pm 24.2 - - - - SW 15 17 8 9 1016.0 1016.0 -
01/04:30pm 25.6 - - - - SW 13 17 7 9 1015.8 1015.8 -
01/04:00pm 28.5 - - - - SSE 11 13 6 7 1015.6 1015.6 -
01/03:30pm 28.6 - - - - SE 13 15 7 8 1015.5 1015.5 -
01/03:00pm 28.2 - - - - SSE 15 17 8 9 1015.5 1015.5 -
01/02:30pm 27.6 - - - - SSE 13 19 7 10 1015.7 1015.7 -
01/02:00pm 26.6 - - - - SSE 7 13 4 7 1015.9 1015.9 -
01/01:30pm 27.8 - - - - SE 15 22 8 12 1016.1 1016.1 -
01/01:00pm 28.0 - - - - SE 13 19 7 10 1016.6 1016.6 -
01/12:30pm 26.2 - - - - SSE 13 17 7 9 1017.1 1017.1 -
01/12:00pm 26.2 - - - - SSE 15 19 8 10 1017.6 1017.6 -
01/11:30am 26.0 - - - - SE 9 13 5 7 1018.2 1018.2 -
01/11:00am 24.2 - - - - SE 6 9 3 5 1018.8 1018.8 -
01/10:30am 22.3 - - - - S 6 7 3 4 1019.2 1019.2 -
01/10:00am 21.6 - - - - SE 7 11 4 6 1019.5 1019.5 -
01/09:30am 21.0 - - - - ESE 11 17 6 9 1019.8 1019.8 -
01/09:00am 19.8 - - - - ESE 17 20 9 11 1019.9 1019.9 -
01/08:30am 19.2 - - - - ESE 11 15 6 8 1019.8 1019.8 -
01/08:00am 18.8 - - - - ESE 15 17 8 9 1019.6 1019.6 -
01/07:30am 18.6 - - - - ESE 17 19 9 10 1019.4 1019.4 -
01/07:00am 19.1 - - - - ESE 20 26 11 14 1019.3 1019.3 -
01/06:30am 19.5 - - - - ESE 13 17 7 9 1019.0 1019.0 -
01/06:00am 19.9 - - - - ESE 11 13 6 7 1018.7 1018.7 -
01/05:30am 20.1 - - - - SE 11 15 6 8 1018.3 1018.3 -
01/05:00am 20.2 - - - - SE 11 13 6 7 1018.2 1018.2 -
01/04:30am 20.2 - - - - SE 9 11 5 6 1018.2 1018.2 -
01/04:00am 20.3 - - - - SE 11 13 6 7 1018.0 1018.0 -
01/03:30am 20.7 - - - - SE 17 20 9 11 1018.1 1018.1 -
01/03:00am 20.9 - - - - SE 17 19 9 10 1018.0 1018.0 -
01/02:30am 21.1 - - - - SE 17 20 9 11 1017.9 1017.9 -
01/02:00am 21.6 - - - - ESE 15 19 8 10 1018.0 1018.0 -
01/01:30am 22.2 - - - - SE 17 19 9 10 1018.1 1018.1 -
01/01:00am 22.7 - - - - SE 13 17 7 9 1018.3 1018.3 -
01/12:30am 22.8 - - - - SE 17 19 9 10 1018.4 1018.4 -
01/12:00am 23.0 - - - - SSE 11 15 6 8 1018.4 1018.4 -
 
Date/Time
WST
Temp
°C
App
Temp
°C
Dew
Point
Rel
Hum
%
Delta-T
°C
Wind Press
QNH
hPa
Press
MSL
hPa
Rain
since 9 am
mm
Dir
 
Spd
km/h
Gust
km/h
Spd
kts
Gust
kts
30/11:30pm 22.3 - - - - SSE 6 7 3 4 1018.3 1018.3 -
30/11:00pm 22.4 - - - - SSE 9 11 5 6 1018.5 1018.5 -
30/10:30pm 23.4 - - - - SSE 11 13 6 7 1018.6 1018.6 -
30/10:00pm 22.7 - - - - SSW 15 19 8 10 1018.6 1018.6 -
30/09:30pm 23.2 - - - - SSW 24 28 13 15 1018.4 1018.4 -
30/09:00pm 23.6 - - - - SSW 20 24 11 13 1018.4 1018.4 -
30/08:30pm 23.6 - - - - SSW 20 24 11 13 1018.3 1018.3 -
30/08:00pm 23.6 - - - - SSW 17 24 9 13 1018.1 1018.1 -
30/07:30pm 23.8 - - - - SW 20 26 11 14 1017.8 1017.8 -
30/07:00pm 23.1 - - - - SW 15 20 8 11 1017.5 1017.5 -
30/06:30pm 25.1 - - - - SW 15 17 8 9 1017.0 1017.0 -
30/06:00pm 24.0 - - - - WSW 11 15 6 8 1016.6 1016.6 -
30/05:30pm 24.8 - - - - W 6 9 3 5 1016.2 1016.2 -
30/05:00pm 28.7 - - - - S 15 19 8 10 1015.9 1015.9 -
30/04:30pm 29.3 - - - - SSE 17 19 9 10 1015.5 1015.5 -

Other Formats:

Comma delimited format used in spreadsheet applications
http://www.bom.gov.au/fwo/IDW60801/IDW60801.95202.axf

JavaScript Object Notation format (JSON) in row-major order
http://www.bom.gov.au/fwo/IDW60801/IDW60801.95202.json